sensor_id;sensor_type;location;lat;lon;timestamp;temperature;humidity
37002;DHT22;22913;51.910;8.374;2022-09-13T00:00:52;17.80;99.90
37002;DHT22;22913;51.910;8.374;2022-09-13T00:03:40;17.70;99.90
37002;DHT22;22913;51.910;8.374;2022-09-13T00:06:25;17.70;99.90
37002;DHT22;22913;51.910;8.374;2022-09-13T00:09:11;17.70;99.90
37002;DHT22;22913;51.910;8.374;2022-09-13T00:11:56;17.60;99.90
37002;DHT22;22913;51.910;8.374;2022-09-13T00:14:42;17.70;99.90
37002;DHT22;22913;51.910;8.374;2022-09-13T00:17:28;17.60;99.90
37002;DHT22;22913;51.910;8.374;2022-09-13T00:20:15;17.60;99.90
37002;DHT22;22913;51.910;8.374;2022-09-13T00:23:01;17.60;99.90
37002;DHT22;22913;51.910;8.374;2022-09-13T00:25:46;17.60;99.90
37002;DHT22;22913;51.910;8.374;2022-09-13T00:28:32;17.60;99.90
37002;DHT22;22913;51.910;8.374;2022-09-13T00:31:19;17.60;99.90
37002;DHT22;22913;51.910;8.374;2022-09-13T00:34:04;17.60;99.90
37002;DHT22;22913;51.910;8.374;2022-09-13T00:36:51;17.50;99.90
37002;DHT22;22913;51.910;8.374;2022-09-13T00:39:37;17.60;99.90
37002;DHT22;22913;51.910;8.374;2022-09-13T00:42:24;17.50;99.90
37002;DHT22;22913;51.910;8.374;2022-09-13T00:45:15;17.50;99.90
37002;DHT22;22913;51.910;8.374;2022-09-13T00:48:04;17.50;99.90
37002;DHT22;22913;51.910;8.374;2022-09-13T00:50:53;17.50;99.90
37002;DHT22;22913;51.910;8.374;2022-09-13T00:53:45;17.50;99.90
37002;DHT22;22913;51.910;8.374;2022-09-13T00:56:35;17.50;99.90
37002;DHT22;22913;51.910;8.374;2022-09-13T00:59:25;17.50;99.90
37002;DHT22;22913;51.910;8.374;2022-09-13T01:02:12;17.50;99.90
37002;DHT22;22913;51.910;8.374;2022-09-13T01:04:59;17.50;99.90
37002;DHT22;22913;51.910;8.374;2022-09-13T01:07:44;17.50;99.90
37002;DHT22;22913;51.910;8.374;2022-09-13T01:10:33;17.60;99.90
37002;DHT22;22913;51.910;8.374;2022-09-13T01:13:20;17.60;99.90
37002;DHT22;22913;51.910;8.374;2022-09-13T01:16:07;17.60;99.90
37002;DHT22;22913;51.910;8.374;2022-09-13T01:18:52;17.60;99.90
37002;DHT22;22913;51.910;8.374;2022-09-13T01:25:23;17.60;99.90
37002;DHT22;22913;51.910;8.374;2022-09-13T01:28:34;17.60;99.90
37002;DHT22;22913;51.910;8.374;2022-09-13T01:31:28;17.70;99.90
37002;DHT22;22913;51.910;8.374;2022-09-13T01:34:26;17.70;99.90
37002;DHT22;22913;51.910;8.374;2022-09-13T01:40:45;17.70;99.90
37002;DHT22;22913;51.910;8.374;2022-09-13T01:43:44;17.70;99.90
37002;DHT22;22913;51.910;8.374;2022-09-13T01:46:36;17.70;99.90
37002;DHT22;22913;51.910;8.374;2022-09-13T01:49:31;17.70;99.90
37002;DHT22;22913;51.910;8.374;2022-09-13T01:52:24;17.80;99.90
37002;DHT22;22913;51.910;8.374;2022-09-13T01:55:26;17.80;99.90
37002;DHT22;22913;51.910;8.374;2022-09-13T01:58:20;17.70;99.90
37002;DHT22;22913;51.910;8.374;2022-09-13T02:01:11;17.80;99.90
37002;DHT22;22913;51.910;8.374;2022-09-13T02:04:05;17.70;99.90
37002;DHT22;22913;51.910;8.374;2022-09-13T02:06:59;17.70;99.90
37002;DHT22;22913;51.910;8.374;2022-09-13T02:09:48;17.80;99.90
37002;DHT22;22913;51.910;8.374;2022-09-13T02:12:36;17.70;99.90
37002;DHT22;22913;51.910;8.374;2022-09-13T02:15:27;17.80;99.90
37002;DHT22;22913;51.910;8.374;2022-09-13T02:18:17;17.80;99.90
37002;DHT22;22913;51.910;8.374;2022-09-13T02:21:09;17.70;99.90
37002;DHT22;22913;51.910;8.374;2022-09-13T02:24:00;17.70;99.90
37002;DHT22;22913;51.910;8.374;2022-09-13T02:26:46;17.80;99.90
37002;DHT22;22913;51.910;8.374;2022-09-13T02:29:36;17.70;99.90
37002;DHT22;22913;51.910;8.374;2022-09-13T02:32:25;17.70;99.90
37002;DHT22;22913;51.910;8.374;2022-09-13T02:35:16;17.70;99.90
37002;DHT22;22913;51.910;8.374;2022-09-13T02:38:08;17.70;99.90
37002;DHT22;22913;51.910;8.374;2022-09-13T02:40:59;17.60;99.90
37002;DHT22;22913;51.910;8.374;2022-09-13T02:43:49;17.60;99.90
37002;DHT22;22913;51.910;8.374;2022-09-13T02:46:46;17.60;99.90
37002;DHT22;22913;51.910;8.374;2022-09-13T02:49:47;17.60;99.90
37002;DHT22;22913;51.910;8.374;2022-09-13T02:52:44;17.60;99.90
37002;DHT22;22913;51.910;8.374;2022-09-13T02:55:40;17.50;99.90
37002;DHT22;22913;51.910;8.374;2022-09-13T02:58:32;17.50;99.90
37002;DHT22;22913;51.910;8.374;2022-09-13T03:01:19;17.50;99.90
37002;DHT22;22913;51.910;8.374;2022-09-13T03:04:04;17.50;99.90
37002;DHT22;22913;51.910;8.374;2022-09-13T03:06:50;17.50;99.90
37002;DHT22;22913;51.910;8.374;2022-09-13T03:09:36;17.50;99.90
37002;DHT22;22913;51.910;8.374;2022-09-13T03:16:01;17.40;99.90
37002;DHT22;22913;51.910;8.374;2022-09-13T03:18:59;17.40;99.90
37002;DHT22;22913;51.910;8.374;2022-09-13T03:22:08;17.40;99.90
37002;DHT22;22913;51.910;8.374;2022-09-13T03:25:05;17.40;99.90
37002;DHT22;22913;51.910;8.374;2022-09-13T03:27:59;17.40;99.90
37002;DHT22;22913;51.910;8.374;2022-09-13T03:30:49;17.40;99.90
37002;DHT22;22913;51.910;8.374;2022-09-13T03:33:45;17.40;99.90
37002;DHT22;22913;51.910;8.374;2022-09-13T03:36:35;17.40;99.90
37002;DHT22;22913;51.910;8.374;2022-09-13T03:39:28;17.30;99.90
37002;DHT22;22913;51.910;8.374;2022-09-13T03:42:20;17.40;99.90
37002;DHT22;22913;51.910;8.374;2022-09-13T03:45:09;17.30;99.90
37002;DHT22;22913;51.910;8.374;2022-09-13T03:47:56;17.30;99.90
37002;DHT22;22913;51.910;8.374;2022-09-13T03:50:45;17.30;99.90
37002;DHT22;22913;51.910;8.374;2022-09-13T03:53:34;17.30;99.90
37002;DHT22;22913;51.910;8.374;2022-09-13T03:56:20;17.30;99.90
37002;DHT22;22913;51.910;8.374;2022-09-13T03:59:06;17.30;99.90
37002;DHT22;22913;51.910;8.374;2022-09-13T04:01:51;17.30;99.90
37002;DHT22;22913;51.910;8.374;2022-09-13T04:04:38;17.30;99.90
37002;DHT22;22913;51.910;8.374;2022-09-13T04:07:25;17.30;99.90
37002;DHT22;22913;51.910;8.374;2022-09-13T04:10:11;17.30;99.90
37002;DHT22;22913;51.910;8.374;2022-09-13T04:12:57;17.20;99.90
37002;DHT22;22913;51.910;8.374;2022-09-13T04:15:43;17.20;99.90
37002;DHT22;22913;51.910;8.374;2022-09-13T04:18:29;17.20;99.90
37002;DHT22;22913;51.910;8.374;2022-09-13T04:21:15;17.20;99.90
37002;DHT22;22913;51.910;8.374;2022-09-13T04:24:03;17.20;99.90
37002;DHT22;22913;51.910;8.374;2022-09-13T04:26:49;17.20;99.90
37002;DHT22;22913;51.910;8.374;2022-09-13T04:29:36;17.20;99.90
37002;DHT22;22913;51.910;8.374;2022-09-13T04:32:21;17.20;99.90
37002;DHT22;22913;51.910;8.374;2022-09-13T04:35:07;17.30;99.90
37002;DHT22;22913;51.910;8.374;2022-09-13T04:37:54;17.30;99.90
37002;DHT22;22913;51.910;8.374;2022-09-13T04:40:41;17.30;99.90
37002;DHT22;22913;51.910;8.374;2022-09-13T04:43:27;17.30;99.90
37002;DHT22;22913;51.910;8.374;2022-09-13T04:46:12;17.30;99.90
37002;DHT22;22913;51.910;8.374;2022-09-13T04:48:58;17.30;99.90
37002;DHT22;22913;51.910;8.374;2022-09-13T04:51:44;17.30;99.90
37002;DHT22;22913;51.910;8.374;2022-09-13T04:54:29;17.40;99.90
37002;DHT22;22913;51.910;8.374;2022-09-13T04:57:16;17.40;99.90
37002;DHT22;22913;51.910;8.374;2022-09-13T05:00:03;17.40;99.90
37002;DHT22;22913;51.910;8.374;2022-09-13T05:02:50;17.30;99.90
37002;DHT22;22913;51.910;8.374;2022-09-13T05:05:38;17.40;99.90
37002;DHT22;22913;51.910;8.374;2022-09-13T05:08:24;17.30;99.90
37002;DHT22;22913;51.910;8.374;2022-09-13T05:11:09;17.30;99.90
37002;DHT22;22913;51.910;8.374;2022-09-13T05:13:58;17.30;99.90
37002;DHT22;22913;51.910;8.374;2022-09-13T05:16:43;17.30;99.90
37002;DHT22;22913;51.910;8.374;2022-09-13T05:19:29;17.30;99.90
37002;DHT22;22913;51.910;8.374;2022-09-13T05:22:14;17.30;99.90
37002;DHT22;22913;51.910;8.374;2022-09-13T05:25:00;17.30;99.90
37002;DHT22;22913;51.910;8.374;2022-09-13T05:27:46;17.30;99.90
37002;DHT22;22913;51.910;8.374;2022-09-13T05:30:33;17.20;99.90
37002;DHT22;22913;51.910;8.374;2022-09-13T05:33:18;17.20;99.90
37002;DHT22;22913;51.910;8.374;2022-09-13T05:36:05;17.20;99.90
37002;DHT22;22913;51.910;8.374;2022-09-13T05:38:52;17.20;99.90
37002;DHT22;22913;51.910;8.374;2022-09-13T05:41:37;17.20;99.90
37002;DHT22;22913;51.910;8.374;2022-09-13T05:44:23;17.20;99.90
37002;DHT22;22913;51.910;8.374;2022-09-13T05:47:12;17.20;99.90
37002;DHT22;22913;51.910;8.374;2022-09-13T05:49:58;17.30;99.90
37002;DHT22;22913;51.910;8.374;2022-09-13T05:52:43;17.30;99.90
37002;DHT22;22913;51.910;8.374;2022-09-13T05:55:29;17.30;99.90
37002;DHT22;22913;51.910;8.374;2022-09-13T05:58:14;17.40;99.90
37002;DHT22;22913;51.910;8.374;2022-09-13T06:01:00;17.40;99.90
37002;DHT22;22913;51.910;8.374;2022-09-13T06:03:48;17.50;99.90
37002;DHT22;22913;51.910;8.374;2022-09-13T06:06:34;17.50;99.90
37002;DHT22;22913;51.910;8.374;2022-09-13T06:09:19;17.50;99.90
37002;DHT22;22913;51.910;8.374;2022-09-13T06:12:06;17.60;99.90
37002;DHT22;22913;51.910;8.374;2022-09-13T06:14:51;17.60;99.90
37002;DHT22;22913;51.910;8.374;2022-09-13T06:17:37;17.70;99.90
37002;DHT22;22913;51.910;8.374;2022-09-13T06:20:24;17.80;99.90
37002;DHT22;22913;51.910;8.374;2022-09-13T06:23:10;17.80;99.90
37002;DHT22;22913;51.910;8.374;2022-09-13T06:26:00;17.90;99.90
37002;DHT22;22913;51.910;8.374;2022-09-13T06:28:47;18.00;99.90
37002;DHT22;22913;51.910;8.374;2022-09-13T06:31:33;18.00;99.90
37002;DHT22;22913;51.910;8.374;2022-09-13T06:34:21;18.10;99.90
37002;DHT22;22913;51.910;8.374;2022-09-13T06:37:08;18.10;99.90
37002;DHT22;22913;51.910;8.374;2022-09-13T06:39:53;18.20;99.90
37002;DHT22;22913;51.910;8.374;2022-09-13T06:42:39;18.30;99.90
37002;DHT22;22913;51.910;8.374;2022-09-13T06:45:25;18.30;99.90
37002;DHT22;22913;51.910;8.374;2022-09-13T06:48:10;18.30;99.90
37002;DHT22;22913;51.910;8.374;2022-09-13T06:50:59;18.40;99.90
37002;DHT22;22913;51.910;8.374;2022-09-13T06:53:47;18.40;99.90
37002;DHT22;22913;51.910;8.374;2022-09-13T06:56:34;18.40;99.90
37002;DHT22;22913;51.910;8.374;2022-09-13T06:59:21;18.50;99.90
37002;DHT22;22913;51.910;8.374;2022-09-13T07:02:07;18.50;99.90
37002;DHT22;22913;51.910;8.374;2022-09-13T07:04:53;18.50;99.90
37002;DHT22;22913;51.910;8.374;2022-09-13T07:07:39;18.60;99.90
37002;DHT22;22913;51.910;8.374;2022-09-13T07:10:26;18.60;99.90
37002;DHT22;22913;51.910;8.374;2022-09-13T07:13:11;18.60;99.90
37002;DHT22;22913;51.910;8.374;2022-09-13T07:16:00;18.60;99.90
37002;DHT22;22913;51.910;8.374;2022-09-13T07:18:50;18.70;99.90
37002;DHT22;22913;51.910;8.374;2022-09-13T07:21:35;18.60;99.90
37002;DHT22;22913;51.910;8.374;2022-09-13T07:24:22;18.70;99.90
37002;DHT22;22913;51.910;8.374;2022-09-13T07:27:09;18.80;99.90
37002;DHT22;22913;51.910;8.374;2022-09-13T07:29:54;18.90;99.90
37002;DHT22;22913;51.910;8.374;2022-09-13T07:32:41;19.00;99.90
37002;DHT22;22913;51.910;8.374;2022-09-13T07:35:26;19.00;99.90
37002;DHT22;22913;51.910;8.374;2022-09-13T07:38:12;19.10;99.90
37002;DHT22;22913;51.910;8.374;2022-09-13T07:40:58;19.30;99.90
37002;DHT22;22913;51.910;8.374;2022-09-13T07:43:45;19.30;99.90
37002;DHT22;22913;51.910;8.374;2022-09-13T07:46:32;19.40;99.90
37002;DHT22;22913;51.910;8.374;2022-09-13T07:49:19;19.50;99.90
37002;DHT22;22913;51.910;8.374;2022-09-13T07:52:05;19.60;99.90
37002;DHT22;22913;51.910;8.374;2022-09-13T07:54:50;19.70;99.90
37002;DHT22;22913;51.910;8.374;2022-09-13T07:57:36;19.70;99.90
37002;DHT22;22913;51.910;8.374;2022-09-13T08:00:23;19.80;99.90
37002;DHT22;22913;51.910;8.374;2022-09-13T08:03:10;19.80;99.90
37002;DHT22;22913;51.910;8.374;2022-09-13T08:05:55;20.00;99.90
37002;DHT22;22913;51.910;8.374;2022-09-13T08:08:41;20.10;99.90
37002;DHT22;22913;51.910;8.374;2022-09-13T08:11:29;20.10;99.90
37002;DHT22;22913;51.910;8.374;2022-09-13T08:14:17;20.20;99.90
37002;DHT22;22913;51.910;8.374;2022-09-13T08:17:04;20.30;99.90
37002;DHT22;22913;51.910;8.374;2022-09-13T08:19:50;20.40;99.90
37002;DHT22;22913;51.910;8.374;2022-09-13T08:22:35;20.50;99.90
37002;DHT22;22913;51.910;8.374;2022-09-13T08:25:21;20.60;99.90
37002;DHT22;22913;51.910;8.374;2022-09-13T08:28:08;20.70;99.90
37002;DHT22;22913;51.910;8.374;2022-09-13T08:30:54;20.80;99.90
37002;DHT22;22913;51.910;8.374;2022-09-13T08:33:44;20.90;99.90
37002;DHT22;22913;51.910;8.374;2022-09-13T08:36:30;21.00;99.90
37002;DHT22;22913;51.910;8.374;2022-09-13T08:39:15;21.00;99.90
37002;DHT22;22913;51.910;8.374;2022-09-13T08:42:21;21.10;99.90
37002;DHT22;22913;51.910;8.374;2022-09-13T08:45:08;21.20;99.90
37002;DHT22;22913;51.910;8.374;2022-09-13T08:47:57;21.20;99.90
37002;DHT22;22913;51.910;8.374;2022-09-13T08:50:46;21.30;99.90
37002;DHT22;22913;51.910;8.374;2022-09-13T08:53:39;21.30;99.90
37002;DHT22;22913;51.910;8.374;2022-09-13T08:56:31;21.30;99.90
37002;DHT22;22913;51.910;8.374;2022-09-13T08:59:29;21.30;99.90
37002;DHT22;22913;51.910;8.374;2022-09-13T09:02:36;21.30;99.90
37002;DHT22;22913;51.910;8.374;2022-09-13T09:05:30;21.30;99.90
37002;DHT22;22913;51.910;8.374;2022-09-13T09:08:26;21.30;99.90
37002;DHT22;22913;51.910;8.374;2022-09-13T09:11:21;21.40;99.90
37002;DHT22;22913;51.910;8.374;2022-09-13T09:14:16;21.40;99.90
37002;DHT22;22913;51.910;8.374;2022-09-13T09:17:10;21.50;99.90
37002;DHT22;22913;51.910;8.374;2022-09-13T09:20:05;21.40;99.90
37002;DHT22;22913;51.910;8.374;2022-09-13T09:22:54;21.50;99.90
37002;DHT22;22913;51.910;8.374;2022-09-13T09:25:41;21.40;99.90
37002;DHT22;22913;51.910;8.374;2022-09-13T10:29:23;21.60;99.90
37002;DHT22;22913;51.910;8.374;2022-09-13T10:32:10;22.30;99.90
37002;DHT22;22913;51.910;8.374;2022-09-13T10:35:01;22.50;99.90
37002;DHT22;22913;51.910;8.374;2022-09-13T10:37:47;22.60;99.90
37002;DHT22;22913;51.910;8.374;2022-09-13T10:40:33;22.70;99.90
37002;DHT22;22913;51.910;8.374;2022-09-13T10:43:22;22.70;99.90
37002;DHT22;22913;51.910;8.374;2022-09-13T10:46:12;22.60;99.90
37002;DHT22;22913;51.910;8.374;2022-09-13T10:48:59;22.80;99.90
37002;DHT22;22913;51.910;8.374;2022-09-13T10:51:45;22.80;99.90
37002;DHT22;22913;51.910;8.374;2022-09-13T10:54:31;22.90;99.90
37002;DHT22;22913;51.910;8.374;2022-09-13T10:57:33;22.90;99.90
37002;DHT22;22913;51.910;8.374;2022-09-13T11:00:21;22.90;99.90
37002;DHT22;22913;51.910;8.374;2022-09-13T11:03:25;22.90;99.90
37002;DHT22;22913;51.910;8.374;2022-09-13T11:06:19;22.80;99.90
37002;DHT22;22913;51.910;8.374;2022-09-13T11:09:12;22.80;99.90
37002;DHT22;22913;51.910;8.374;2022-09-13T11:12:06;22.90;99.90
37002;DHT22;22913;51.910;8.374;2022-09-13T11:15:02;23.00;99.90
37002;DHT22;22913;51.910;8.374;2022-09-13T11:18:09;23.10;99.90
37002;DHT22;22913;51.910;8.374;2022-09-13T11:21:09;23.10;99.90
37002;DHT22;22913;51.910;8.374;2022-09-13T11:24:32;22.90;99.90
37002;DHT22;22913;51.910;8.374;2022-09-13T11:27:31;22.90;99.90
37002;DHT22;22913;51.910;8.374;2022-09-13T11:30:22;22.80;99.90
37002;DHT22;22913;51.910;8.374;2022-09-13T11:33:24;22.80;99.90
37002;DHT22;22913;51.910;8.374;2022-09-13T11:36:39;22.60;99.90
37002;DHT22;22913;51.910;8.374;2022-09-13T11:39:33;22.70;99.90
37002;DHT22;22913;51.910;8.374;2022-09-13T11:42:33;22.80;99.90
37002;DHT22;22913;51.910;8.374;2022-09-13T11:45:23;22.90;99.90
37002;DHT22;22913;51.910;8.374;2022-09-13T11:48:34;23.20;99.90
37002;DHT22;22913;51.910;8.374;2022-09-13T11:51:34;23.40;99.90
37002;DHT22;22913;51.910;8.374;2022-09-13T11:54:48;23.80;99.90
37002;DHT22;22913;51.910;8.374;2022-09-13T11:57:39;23.90;99.90
37002;DHT22;22913;51.910;8.374;2022-09-13T12:00:28;24.20;99.90
37002;DHT22;22913;51.910;8.374;2022-09-13T12:03:17;24.30;99.90
37002;DHT22;22913;51.910;8.374;2022-09-13T12:06:11;24.50;99.90
37002;DHT22;22913;51.910;8.374;2022-09-13T12:09:03;24.50;99.90
37002;DHT22;22913;51.910;8.374;2022-09-13T12:11:53;24.40;99.90
37002;DHT22;22913;51.910;8.374;2022-09-13T12:14:45;24.30;99.90
37002;DHT22;22913;51.910;8.374;2022-09-13T12:17:37;24.40;99.90
37002;DHT22;22913;51.910;8.374;2022-09-13T12:20:29;24.30;99.90
37002;DHT22;22913;51.910;8.374;2022-09-13T12:23:21;24.20;99.90
37002;DHT22;22913;51.910;8.374;2022-09-13T12:26:14;24.00;99.90
37002;DHT22;22913;51.910;8.374;2022-09-13T12:29:10;23.90;99.90
37002;DHT22;22913;51.910;8.374;2022-09-13T12:32:01;24.10;99.90
37002;DHT22;22913;51.910;8.374;2022-09-13T12:34:52;24.10;99.90
37002;DHT22;22913;51.910;8.374;2022-09-13T12:41:07;24.00;99.90
37002;DHT22;22913;51.910;8.374;2022-09-13T12:47:42;24.10;99.90
37002;DHT22;22913;51.910;8.374;2022-09-13T12:50:55;24.10;99.90
37002;DHT22;22913;51.910;8.374;2022-09-13T12:57:02;24.00;99.90
37002;DHT22;22913;51.910;8.374;2022-09-13T13:00:09;23.70;99.90
37002;DHT22;22913;51.910;8.374;2022-09-13T13:03:01;23.80;99.90
37002;DHT22;22913;51.910;8.374;2022-09-13T13:06:06;23.70;99.90
37002;DHT22;22913;51.910;8.374;2022-09-13T13:08:56;23.70;99.90
37002;DHT22;22913;51.910;8.374;2022-09-13T13:11:44;23.60;99.90
37002;DHT22;22913;51.910;8.374;2022-09-13T13:14:45;23.80;99.90
37002;DHT22;22913;51.910;8.374;2022-09-13T13:17:41;24.00;99.90
37002;DHT22;22913;51.910;8.374;2022-09-13T13:20:43;24.20;99.90
37002;DHT22;22913;51.910;8.374;2022-09-13T13:23:31;24.00;99.90
37002;DHT22;22913;51.910;8.374;2022-09-13T13:26:43;24.00;99.90
37002;DHT22;22913;51.910;8.374;2022-09-13T13:29:30;24.10;99.90
37002;DHT22;22913;51.910;8.374;2022-09-13T13:32:16;24.30;99.90
37002;DHT22;22913;51.910;8.374;2022-09-13T13:35:28;24.80;99.90
37002;DHT22;22913;51.910;8.374;2022-09-13T13:38:38;25.20;99.90
37002;DHT22;22913;51.910;8.374;2022-09-13T13:41:52;25.50;99.90
37002;DHT22;22913;51.910;8.374;2022-09-13T13:45:03;25.70;99.90
37002;DHT22;22913;51.910;8.374;2022-09-13T13:51:26;25.70;99.90
37002;DHT22;22913;51.910;8.374;2022-09-13T13:54:27;25.90;99.90
37002;DHT22;22913;51.910;8.374;2022-09-13T13:57:21;26.20;99.90
37002;DHT22;22913;51.910;8.374;2022-09-13T14:00:12;26.50;99.90
37002;DHT22;22913;51.910;8.374;2022-09-13T14:03:09;26.30;99.90
37002;DHT22;22913;51.910;8.374;2022-09-13T14:06:05;26.40;99.90
37002;DHT22;22913;51.910;8.374;2022-09-13T14:09:11;26.30;99.90
37002;DHT22;22913;51.910;8.374;2022-09-13T14:12:13;26.10;99.90
37002;DHT22;22913;51.910;8.374;2022-09-13T14:15:11;25.60;99.90
37002;DHT22;22913;51.910;8.374;2022-09-13T14:21:20;25.60;99.90
37002;DHT22;22913;51.910;8.374;2022-09-13T14:24:15;25.60;99.90
37002;DHT22;22913;51.910;8.374;2022-09-13T14:27:02;25.80;99.90
37002;DHT22;22913;51.910;8.374;2022-09-13T14:29:49;26.40;99.90
37002;DHT22;22913;51.910;8.374;2022-09-13T14:32:41;27.00;99.90
37002;DHT22;22913;51.910;8.374;2022-09-13T14:35:28;27.60;99.90
37002;DHT22;22913;51.910;8.374;2022-09-13T14:38:19;28.00;99.90
37002;DHT22;22913;51.910;8.374;2022-09-13T14:41:14;27.70;99.90
37002;DHT22;22913;51.910;8.374;2022-09-13T14:44:19;28.50;99.90
37002;DHT22;22913;51.910;8.374;2022-09-13T14:47:11;29.10;99.90
37002;DHT22;22913;51.910;8.374;2022-09-13T14:50:02;29.70;99.90
37002;DHT22;22913;51.910;8.374;2022-09-13T14:52:51;30.00;99.90
37002;DHT22;22913;51.910;8.374;2022-09-13T14:55:41;30.20;99.90
37002;DHT22;22913;51.910;8.374;2022-09-13T14:58:41;29.50;99.90
37002;DHT22;22913;51.910;8.374;2022-09-13T15:01:30;28.50;99.90
37002;DHT22;22913;51.910;8.374;2022-09-13T15:04:16;28.20;99.90
37002;DHT22;22913;51.910;8.374;2022-09-13T15:07:08;28.80;99.90
37002;DHT22;22913;51.910;8.374;2022-09-13T15:10:05;28.90;99.90
37002;DHT22;22913;51.910;8.374;2022-09-13T15:12:54;29.20;99.90
37002;DHT22;22913;51.910;8.374;2022-09-13T15:15:47;29.50;99.90
37002;DHT22;22913;51.910;8.374;2022-09-13T15:18:33;29.40;99.90
37002;DHT22;22913;51.910;8.374;2022-09-13T15:21:19;28.80;99.90
37002;DHT22;22913;51.910;8.374;2022-09-13T15:24:13;28.80;99.90
37002;DHT22;22913;51.910;8.374;2022-09-13T15:27:05;29.00;99.90
37002;DHT22;22913;51.910;8.374;2022-09-13T15:29:53;29.20;99.90
37002;DHT22;22913;51.910;8.374;2022-09-13T15:32:41;29.10;99.90
37002;DHT22;22913;51.910;8.374;2022-09-13T15:35:29;29.10;99.90
37002;DHT22;22913;51.910;8.374;2022-09-13T15:38:28;29.10;99.90
37002;DHT22;22913;51.910;8.374;2022-09-13T15:41:18;28.50;99.90
37002;DHT22;22913;51.910;8.374;2022-09-13T15:44:06;27.90;99.90
37002;DHT22;22913;51.910;8.374;2022-09-13T15:46:53;27.40;99.90
37002;DHT22;22913;51.910;8.374;2022-09-13T15:49:40;27.10;99.90
37002;DHT22;22913;51.910;8.374;2022-09-13T15:52:31;27.00;99.90
37002;DHT22;22913;51.910;8.374;2022-09-13T15:55:16;27.30;99.90
37002;DHT22;22913;51.910;8.374;2022-09-13T15:58:02;27.50;99.90
37002;DHT22;22913;51.910;8.374;2022-09-13T16:00:48;27.80;99.90
37002;DHT22;22913;51.910;8.374;2022-09-13T16:03:33;28.00;99.90
37002;DHT22;22913;51.910;8.374;2022-09-13T16:06:20;27.90;99.90
37002;DHT22;22913;51.910;8.374;2022-09-13T16:09:14;27.50;99.90
37002;DHT22;22913;51.910;8.374;2022-09-13T16:12:00;27.30;99.90
37002;DHT22;22913;51.910;8.374;2022-09-13T16:14:46;27.00;99.90
37002;DHT22;22913;51.910;8.374;2022-09-13T16:17:32;26.50;99.90
37002;DHT22;22913;51.910;8.374;2022-09-13T16:20:17;26.20;99.90
37002;DHT22;22913;51.910;8.374;2022-09-13T16:23:05;26.10;99.90
37002;DHT22;22913;51.910;8.374;2022-09-13T16:25:54;26.00;99.90
37002;DHT22;22913;51.910;8.374;2022-09-13T16:28:41;25.70;99.90
37002;DHT22;22913;51.910;8.374;2022-09-13T16:31:27;25.50;99.90
37002;DHT22;22913;51.910;8.374;2022-09-13T16:34:12;25.30;99.90
37002;DHT22;22913;51.910;8.374;2022-09-13T16:36:58;25.30;99.90
37002;DHT22;22913;51.910;8.374;2022-09-13T16:39:45;25.20;99.90
37002;DHT22;22913;51.910;8.374;2022-09-13T16:42:31;25.00;99.90
37002;DHT22;22913;51.910;8.374;2022-09-13T16:45:17;25.10;99.90
37002;DHT22;22913;51.910;8.374;2022-09-13T16:48:03;24.90;99.90
37002;DHT22;22913;51.910;8.374;2022-09-13T16:50:49;24.70;99.90
37002;DHT22;22913;51.910;8.374;2022-09-13T16:53:38;24.70;99.90
37002;DHT22;22913;51.910;8.374;2022-09-13T16:56:26;24.70;99.90
37002;DHT22;22913;51.910;8.374;2022-09-13T16:59:11;24.60;99.90
37002;DHT22;22913;51.910;8.374;2022-09-13T17:01:57;24.50;99.90
37002;DHT22;22913;51.910;8.374;2022-09-13T17:04:42;24.40;99.90
37002;DHT22;22913;51.910;8.374;2022-09-13T17:07:29;24.40;99.90
37002;DHT22;22913;51.910;8.374;2022-09-13T17:10:14;24.40;99.90
37002;DHT22;22913;51.910;8.374;2022-09-13T17:13:01;24.20;99.90
37002;DHT22;22913;51.910;8.374;2022-09-13T17:15:49;24.10;99.90
37002;DHT22;22913;51.910;8.374;2022-09-13T17:18:34;23.90;99.90
37002;DHT22;22913;51.910;8.374;2022-09-13T17:21:20;23.70;99.90
37002;DHT22;22913;51.910;8.374;2022-09-13T17:24:06;23.60;99.90
37002;DHT22;22913;51.910;8.374;2022-09-13T17:26:52;23.60;99.90
37002;DHT22;22913;51.910;8.374;2022-09-13T17:29:39;23.40;99.90
37002;DHT22;22913;51.910;8.374;2022-09-13T17:32:25;23.30;99.90
37002;DHT22;22913;51.910;8.374;2022-09-13T17:35:10;23.20;99.90
37002;DHT22;22913;51.910;8.374;2022-09-13T17:37:57;23.20;99.90
37002;DHT22;22913;51.910;8.374;2022-09-13T17:40:42;23.00;99.90
37002;DHT22;22913;51.910;8.374;2022-09-13T17:43:28;23.00;99.90
37002;DHT22;22913;51.910;8.374;2022-09-13T17:46:17;22.90;99.90
37002;DHT22;22913;51.910;8.374;2022-09-13T17:49:04;22.80;99.90
37002;DHT22;22913;51.910;8.374;2022-09-13T17:51:50;22.80;99.90
37002;DHT22;22913;51.910;8.374;2022-09-13T17:54:37;22.80;99.90
37002;DHT22;22913;51.910;8.374;2022-09-13T17:57:23;22.70;99.90
37002;DHT22;22913;51.910;8.374;2022-09-13T18:00:10;22.60;99.90
37002;DHT22;22913;51.910;8.374;2022-09-13T18:02:58;22.40;99.90
37002;DHT22;22913;51.910;8.374;2022-09-13T18:05:43;22.50;99.90
37002;DHT22;22913;51.910;8.374;2022-09-13T18:08:31;22.30;99.90
37002;DHT22;22913;51.910;8.374;2022-09-13T18:11:17;22.30;99.90
37002;DHT22;22913;51.910;8.374;2022-09-13T18:14:03;22.30;99.90
37002;DHT22;22913;51.910;8.374;2022-09-13T18:16:48;22.30;99.90
37002;DHT22;22913;51.910;8.374;2022-09-13T18:19:40;22.20;99.90
37002;DHT22;22913;51.910;8.374;2022-09-13T18:22:26;22.10;99.90
37002;DHT22;22913;51.910;8.374;2022-09-13T18:25:11;22.10;99.90
37002;DHT22;22913;51.910;8.374;2022-09-13T18:27:57;22.00;99.90
37002;DHT22;22913;51.910;8.374;2022-09-13T18:30:50;22.00;99.90
37002;DHT22;22913;51.910;8.374;2022-09-13T18:33:36;21.80;99.90
37002;DHT22;22913;51.910;8.374;2022-09-13T18:36:24;21.80;99.90
37002;DHT22;22913;51.910;8.374;2022-09-13T18:39:14;21.70;99.90
37002;DHT22;22913;51.910;8.374;2022-09-13T18:42:00;21.70;99.90
37002;DHT22;22913;51.910;8.374;2022-09-13T18:44:45;21.60;99.90
37002;DHT22;22913;51.910;8.374;2022-09-13T18:47:31;21.50;99.90
37002;DHT22;22913;51.910;8.374;2022-09-13T18:50:16;21.40;99.90
37002;DHT22;22913;51.910;8.374;2022-09-13T18:53:03;21.50;99.90
37002;DHT22;22913;51.910;8.374;2022-09-13T18:55:49;21.40;99.90
37002;DHT22;22913;51.910;8.374;2022-09-13T18:58:36;21.40;99.90
37002;DHT22;22913;51.910;8.374;2022-09-13T19:01:23;21.30;99.90
37002;DHT22;22913;51.910;8.374;2022-09-13T19:04:12;21.30;99.90
37002;DHT22;22913;51.910;8.374;2022-09-13T19:06:58;21.20;99.90
37002;DHT22;22913;51.910;8.374;2022-09-13T19:09:46;21.20;99.90
37002;DHT22;22913;51.910;8.374;2022-09-13T19:12:34;21.10;99.90
37002;DHT22;22913;51.910;8.374;2022-09-13T19:15:19;21.10;99.90
37002;DHT22;22913;51.910;8.374;2022-09-13T19:18:05;21.00;99.90
37002;DHT22;22913;51.910;8.374;2022-09-13T19:20:51;20.80;99.90